Time;durP1;ratioP1;P1;durP2;ratioP2;P2;SDS_P1;SDS_P2;PMS_P1;PMS_P2;Temp;Humidity;BMP_temperature;BMP_pressure;BME280_temperature;BME280_humidity;BME280_pressure;Samples;Min_cycle;Max_cycle;Signal;HPM_P1;HPM_P2
2022/07/27 00:00:53;;;;;;;6.20;1.83;;;16.00;99.90;;;;;;5036825;28;20458;-50
2022/07/27 00:03:19;;;;;;;6.77;1.87;;;16.00;99.90;;;;;;5032378;28;20459;-50
2022/07/27 00:05:46;;;;;;;5.00;1.77;;;16.00;99.90;;;;;;5031177;28;20880;-50
2022/07/27 00:08:13;;;;;;;5.63;1.73;;;15.90;99.90;;;;;;5032203;28;20454;-50
2022/07/27 00:10:39;;;;;;;7.53;1.70;;;15.90;99.90;;;;;;5034272;28;20512;-50
2022/07/27 00:13:07;;;;;;;7.03;1.80;;;15.80;99.90;;;;;;5031279;28;20486;-50
2022/07/27 00:15:34;;;;;;;9.77;1.93;;;15.70;97.50;;;;;;5030043;28;20623;-50
2022/07/27 00:18:01;;;;;;;5.37;1.77;;;15.70;99.90;;;;;;5032620;28;20455;-50
2022/07/27 00:20:28;;;;;;;4.60;1.10;;;15.60;99.90;;;;;;5030624;28;20494;-51
2022/07/27 00:22:55;;;;;;;3.37;1.77;;;15.50;97.80;;;;;;5031116;28;20825;-50
2022/07/27 00:25:22;;;;;;;4.50;1.40;;;15.40;84.60;;;;;;5031599;28;21053;-50
2022/07/27 00:27:48;;;;;;;7.83;1.77;;;15.30;91.40;;;;;;5034075;28;20817;-50
2022/07/27 00:30:16;;;;;;;3.50;1.47;;;15.20;86.50;;;;;;5032077;28;20532;-50
2022/07/27 00:32:43;;;;;;;14.50;1.80;;;15.10;80.70;;;;;;5030641;28;20486;-50
2022/07/27 00:35:10;;;;;;;5.87;1.50;;;15.00;83.90;;;;;;5031749;28;20521;-50
2022/07/27 00:37:38;;;;;;;11.30;2.40;;;15.00;74.50;;;;;;5025718;28;20493;-51
2022/07/27 00:40:06;;;;;;;4.10;1.90;;;14.90;71.90;;;;;;5034332;28;20451;-50
2022/07/27 00:42:33;;;;;;;8.70;1.80;;;14.80;70.60;;;;;;5031739;28;20462;-51
2022/07/27 00:45:01;;;;;;;6.87;1.67;;;14.80;71.00;;;;;;5028293;28;20482;-49
2022/07/27 00:47:28;;;;;;;13.53;2.60;;;14.70;57.00;;;;;;5030792;28;20493;-50
2022/07/27 00:49:55;;;;;;;6.47;1.40;;;14.60;68.60;;;;;;5032935;28;20540;-50
2022/07/27 00:52:23;;;;;;;6.57;1.77;;;14.60;56.60;;;;;;5027331;28;20459;-50
2022/07/27 00:54:50;;;;;;;4.80;1.50;;;14.50;56.40;;;;;;5030890;28;20962;-50
2022/07/27 00:57:16;;;;;;;5.87;2.07;;;14.50;52.30;;;;;;5032023;28;20494;-50
2022/07/27 00:59:43;;;;;;;4.67;1.30;;;14.40;49.60;;;;;;5034629;28;20443;-50
2022/07/27 01:02:10;;;;;;;1.57;1.23;;;14.30;44.70;;;;;;5026774;28;20530;-49
2022/07/27 01:04:38;;;;;;;5.50;1.57;;;14.30;48.00;;;;;;5028614;28;20478;-50
2022/07/27 01:07:05;;;;;;;4.43;1.23;;;14.30;45.50;;;;;;5031309;28;20487;-51
2022/07/27 01:12:19;;;;;;;9.63;1.83;;;14.20;53.20;;;;;;5030685;28;20983;-50
2022/07/27 01:14:47;;;;;;;5.87;1.40;;;14.20;46.90;;;;;;5030807;28;20532;-50
2022/07/27 01:17:13;;;;;;;4.60;1.40;;;14.10;44.10;;;;;;5033922;28;20443;-51
2022/07/27 01:19:41;;;;;;;6.80;1.37;;;14.00;26.90;;;;;;5028110;28;20458;-50
2022/07/27 01:22:09;;;;;;;2.60;1.43;;;14.00;41.00;;;;;;5031572;28;20895;-50
2022/07/27 01:24:36;;;;;;;4.40;1.27;;;14.00;27.10;;;;;;5027590;28;20559;-50
2022/07/27 01:27:04;;;;;;;2.70;1.23;;;13.90;23.10;;;;;;5029880;28;20451;-50
2022/07/27 01:29:32;;;;;;;5.13;1.30;;;13.90;27.50;;;;;;5032031;28;20459;-50
2022/07/27 01:31:59;;;;;;;2.90;1.40;;;13.90;26.80;;;;;;5031026;28;20814;-50
2022/07/27 01:34:25;;;;;;;5.23;1.53;;;13.90;22.30;;;;;;5026390;28;20588;-50
2022/07/27 01:36:52;;;;;;;2.50;1.47;;;13.90;24.70;;;;;;5031302;28;20500;-50
2022/07/27 01:39:20;;;;;;;7.23;1.53;;;13.80;20.10;;;;;;5032713;28;20458;-50
2022/07/27 01:41:47;;;;;;;5.53;1.50;;;13.80;30.90;;;;;;5027000;28;20459;-50
2022/07/27 01:44:14;;;;;;;8.30;1.80;;;13.80;25.50;;;;;;5025606;28;20582;-50
2022/07/27 01:46:40;;;;;;;10.00;1.63;;;13.80;23.70;;;;;;5033290;28;20489;-50
2022/07/27 01:49:07;;;;;;;3.83;1.70;;;13.70;99.90;;;;;;5029840;28;20461;-50
2022/07/27 01:51:34;;;;;;;2.90;1.43;;;13.70;83.80;;;;;;5030526;28;20507;-49
2022/07/27 01:54:00;;;;;;;4.40;1.47;;;13.60;99.90;;;;;;5030000;28;20844;-50
2022/07/27 01:56:28;;;;;;;4.97;1.47;;;13.60;20.90;;;;;;5033246;28;20537;-50
2022/07/27 01:58:55;;;;;;;9.27;1.80;;;13.50;99.90;;;;;;5028250;28;21044;-50
2022/07/27 02:01:22;;;;;;;8.00;2.30;;;13.50;99.90;;;;;;5030341;28;20556;-50
2022/07/27 02:03:48;;;;;;;11.73;1.77;;;13.40;99.90;;;;;;5028593;28;20490;-50
2022/07/27 02:06:15;;;;;;;2.83;1.13;;;13.30;99.90;;;;;;5034336;28;20484;-50
2022/07/27 02:08:42;;;;;;;4.70;1.73;;;13.30;99.90;;;;;;5032061;28;20512;-50
2022/07/27 02:13:54;;;;;;;4.27;1.57;;;13.20;99.90;;;;;;5023305;28;20464;-50
2022/07/27 02:16:21;;;;;;;3.43;1.43;;;13.10;99.90;;;;;;5030289;28;20506;-50
2022/07/27 02:18:47;;;;;;;6.40;1.30;;;13.10;99.90;;;;;;5029326;28;20486;-49
2022/07/27 02:21:14;;;;;;;3.30;1.20;;;13.00;99.90;;;;;;5029138;28;20494;-50
2022/07/27 02:23:43;;;;;;;8.63;1.30;;;12.90;99.90;;;;;;5031323;28;20477;-51
2022/07/27 02:26:09;;;;;;;6.07;1.63;;;12.90;99.90;;;;;;5032886;28;20517;-50
2022/07/27 02:28:36;;;;;;;6.67;2.93;;;12.80;99.90;;;;;;5029567;28;20466;-50
2022/07/27 02:31:04;;;;;;;3.40;1.07;;;12.70;99.90;;;;;;5026862;28;20490;-50
2022/07/27 02:33:32;;;;;;;7.23;1.50;;;12.70;99.90;;;;;;5030355;28;20976;-50
2022/07/27 02:35:58;;;;;;;3.57;1.30;;;12.70;99.90;;;;;;5032565;28;20983;-50
2022/07/27 02:38:25;;;;;;;3.60;1.40;;;12.70;99.90;;;;;;5026194;28;20498;-50
2022/07/27 02:40:52;;;;;;;9.43;1.93;;;12.70;99.90;;;;;;5030637;28;20468;-51
2022/07/27 02:43:18;;;;;;;5.80;1.33;;;12.70;99.90;;;;;;5031501;28;20502;-50
2022/07/27 02:45:45;;;;;;;6.13;1.50;;;12.60;99.90;;;;;;5028188;28;20560;-52
2022/07/27 02:48:13;;;;;;;5.37;2.00;;;12.60;99.90;;;;;;5028196;28;20845;-51
2022/07/27 02:50:40;;;;;;;3.37;1.00;;;12.50;99.90;;;;;;5029511;28;20509;-51
2022/07/27 02:53:06;;;;;;;5.90;1.20;;;12.60;99.90;;;;;;5028777;28;20900;-51
2022/07/27 02:55:33;;;;;;;2.57;1.30;;;12.50;99.90;;;;;;5030263;28;20583;-52
2022/07/27 02:58:00;;;;;;;5.53;2.60;;;12.50;99.90;;;;;;5023968;28;20524;-51
2022/07/27 03:00:27;;;;;;;2.77;1.53;;;12.60;99.90;;;;;;5029189;28;20467;-52
2022/07/27 03:02:53;;;;;;;6.67;2.00;;;12.50;99.90;;;;;;5027065;28;20491;-51
2022/07/27 03:05:21;;;;;;;5.03;1.93;;;12.60;99.90;;;;;;5024691;28;20510;-51
2022/07/27 03:07:48;;;;;;;4.77;1.40;;;12.60;99.90;;;;;;5031180;28;20486;-51
2022/07/27 03:10:14;;;;;;;10.43;1.43;;;12.50;99.90;;;;;;5031967;28;20983;-52
2022/07/27 03:12:43;;;;;;;3.70;1.70;;;12.50;99.90;;;;;;5026518;28;20497;-52
2022/07/27 03:15:10;;;;;;;4.80;1.67;;;12.50;99.90;;;;;;5029015;28;20538;-51
2022/07/27 03:17:37;;;;;;;3.13;1.30;;;12.40;99.90;;;;;;5028415;28;20501;-52
2022/07/27 03:20:04;;;;;;;2.63;1.00;;;12.40;99.90;;;;;;5029051;28;20503;-51
2022/07/27 03:22:32;;;;;;;9.70;1.77;;;12.40;99.90;;;;;;5026206;28;20467;-51
2022/07/27 03:24:59;;;;;;;4.80;1.57;;;12.40;99.90;;;;;;5030374;28;20584;-51
2022/07/27 03:27:26;;;;;;;4.67;1.17;;;12.40;99.90;;;;;;5030918;28;20451;-52
2022/07/27 03:29:52;;;;;;;3.90;1.50;;;12.30;99.90;;;;;;5030519;28;20885;-51
2022/07/27 03:32:19;;;;;;;3.90;1.87;;;12.40;99.90;;;;;;5025713;28;20503;-51
2022/07/27 03:34:45;;;;;;;6.43;1.60;;;12.40;99.90;;;;;;5030316;28;20518;-51
2022/07/27 03:37:14;;;;;;;3.73;1.43;;;12.40;99.90;;;;;;5025337;28;20993;-51
2022/07/27 03:39:41;;;;;;;4.20;1.60;;;12.30;99.90;;;;;;5032238;28;20497;-51
2022/07/27 03:42:08;;;;;;;3.93;1.53;;;12.40;99.90;;;;;;5029076;28;20486;-51
2022/07/27 03:44:35;;;;;;;1.63;1.27;;;12.40;99.90;;;;;;5019697;28;20586;-51
2022/07/27 03:47:01;;;;;;;5.20;1.47;;;12.50;99.90;;;;;;5029533;28;20494;-51
2022/07/27 03:49:28;;;;;;;8.73;1.80;;;12.40;99.90;;;;;;5027980;28;21162;-51
2022/07/27 03:51:54;;;;;;;3.00;1.30;;;12.40;99.90;;;;;;5028366;28;21548;-51
2022/07/27 03:54:21;;;;;;;7.93;1.00;;;12.40;99.90;;;;;;5029211;28;20890;-51
2022/07/27 03:56:49;;;;;;;2.80;1.40;;;12.50;99.90;;;;;;5028604;28;20514;-52
2022/07/27 03:59:15;;;;;;;3.60;1.50;;;12.50;99.90;;;;;;5031438;28;20447;-51
2022/07/27 04:01:42;;;;;;;6.10;1.90;;;12.50;99.90;;;;;;5028983;28;20491;-51
2022/07/27 04:04:09;;;;;;;3.13;1.10;;;12.60;99.90;;;;;;5027584;28;21012;-50
2022/07/27 04:06:35;;;;;;;5.87;1.70;;;12.50;99.90;;;;;;5029568;28;20516;-51
2022/07/27 04:09:02;;;;;;;3.10;1.20;;;12.50;99.90;;;;;;5032053;28;20482;-52
2022/07/27 04:11:28;;;;;;;6.93;1.57;;;12.50;99.90;;;;;;5022868;28;20474;-50
2022/07/27 04:13:56;;;;;;;2.00;1.20;;;12.50;99.90;;;;;;5024388;28;20510;-55
2022/07/27 04:16:23;;;;;;;3.77;1.70;;;12.50;99.90;;;;;;5028450;28;20540;-50
2022/07/27 04:18:52;;;;;;;6.67;1.53;;;12.50;99.90;;;;;;5029746;28;20544;-51
2022/07/27 04:21:18;;;;;;;3.83;1.40;;;12.50;99.90;;;;;;5028460;28;20462;-50
2022/07/27 04:23:45;;;;;;;6.20;1.13;;;12.50;99.90;;;;;;5028895;28;20473;-51
2022/07/27 04:26:12;;;;;;;6.03;1.13;;;12.50;99.90;;;;;;5026252;28;20536;-51
2022/07/27 04:28:38;;;;;;;6.43;1.33;;;12.50;99.90;;;;;;5028822;28;20494;-51
2022/07/27 04:31:06;;;;;;;3.40;1.87;;;12.50;99.90;;;;;;5027746;28;20490;-52
2022/07/27 04:33:33;;;;;;;3.10;1.60;;;12.50;99.90;;;;;;5032042;28;20504;-52
2022/07/27 04:36:00;;;;;;;3.10;1.53;;;12.50;99.90;;;;;;5034590;28;21010;-51
2022/07/27 04:38:26;;;;;;;3.27;2.03;;;12.40;99.90;;;;;;5033088;28;20490;-52
2022/07/27 04:40:53;;;;;;;3.87;1.73;;;12.50;99.90;;;;;;5032685;28;20462;-53
2022/07/27 04:43:19;;;;;;;5.77;2.00;;;12.60;99.90;;;;;;5033175;28;20525;-52
2022/07/27 04:45:46;;;;;;;4.07;2.20;;;12.60;99.90;;;;;;5028195;28;20506;-52
2022/07/27 04:48:14;;;;;;;4.60;1.53;;;12.60;99.90;;;;;;5033232;28;20486;-52
2022/07/27 04:50:42;;;;;;;4.33;1.70;;;12.60;99.90;;;;;;5032541;28;20531;-53
2022/07/27 04:53:09;;;;;;;6.60;1.70;;;12.70;99.90;;;;;;5030462;28;20498;-52
2022/07/27 04:55:36;;;;;;;4.83;1.60;;;12.70;99.90;;;;;;5031650;28;21022;-52
2022/07/27 04:58:03;;;;;;;4.53;1.80;;;12.70;99.90;;;;;;5032516;28;20486;-53
2022/07/27 05:00:30;;;;;;;5.40;1.87;;;12.70;99.90;;;;;;5032394;28;20520;-52
2022/07/27 05:02:56;;;;;;;15.20;2.97;;;12.70;99.90;;;;;;5025915;28;20487;-52
2022/07/27 05:05:24;;;;;;;7.50;2.03;;;12.70;99.90;;;;;;5040127;28;20514;-53
2022/07/27 05:07:51;;;;;;;8.10;1.87;;;12.80;99.90;;;;;;5031934;28;20494;-52
2022/07/27 05:10:18;;;;;;;1.97;1.43;;;12.80;99.90;;;;;;5033350;28;20489;-52
2022/07/27 05:12:44;;;;;;;1.63;1.33;;;12.90;99.90;;;;;;5031462;28;21021;-53
2022/07/27 05:15:11;;;;;;;1.70;1.30;;;12.90;99.90;;;;;;5029117;28;20941;-52
2022/07/27 05:17:38;;;;;;;2.90;1.20;;;13.00;99.90;;;;;;5031630;28;20518;-53
2022/07/27 05:20:05;;;;;;;5.00;1.97;;;13.00;99.90;;;;;;5026194;28;20473;-53
2022/07/27 05:22:33;;;;;;;5.10;1.80;;;13.10;99.90;;;;;;5027252;28;20498;-52
2022/07/27 05:25:00;;;;;;;2.73;1.30;;;13.20;99.90;;;;;;5031673;28;21001;-53
2022/07/27 05:27:26;;;;;;;5.23;1.60;;;13.20;99.90;;;;;;5031225;28;20489;-52
2022/07/27 05:29:53;;;;;;;12.67;2.13;;;13.30;99.90;;;;;;5030928;28;20487;-51
2022/07/27 05:32:20;;;;;;;6.20;1.53;;;13.40;99.90;;;;;;5026468;28;20499;-52
2022/07/27 05:34:47;;;;;;;4.30;1.10;;;13.50;99.90;;;;;;5030242;28;20603;-52
2022/07/27 05:37:14;;;;;;;5.90;1.30;;;13.60;99.90;;;;;;5029156;28;20514;-51
2022/07/27 05:39:42;;;;;;;5.13;1.20;;;13.60;99.90;;;;;;5025465;28;20998;-52
2022/07/27 05:42:09;;;;;;;6.77;1.37;;;13.70;99.90;;;;;;5026019;28;20502;-53
2022/07/27 05:44:35;;;;;;;4.50;1.33;;;13.70;99.90;;;;;;5031123;28;20576;-52
2022/07/27 05:47:02;;;;;;;3.70;1.90;;;13.70;99.90;;;;;;5032593;28;20486;-52
2022/07/27 05:49:28;;;;;;;3.90;1.53;;;13.70;99.90;;;;;;5029653;28;20490;-52
2022/07/27 05:51:55;;;;;;;2.17;1.00;;;13.80;99.90;;;;;;5030810;28;20490;-51
2022/07/27 05:54:22;;;;;;;5.13;1.40;;;13.90;99.90;;;;;;5021907;28;20518;-52
2022/07/27 05:56:51;;;;;;;3.40;1.60;;;13.90;99.90;;;;;;5034693;28;21013;-51
2022/07/27 05:59:17;;;;;;;13.57;1.80;;;14.00;99.90;;;;;;5032323;28;21007;-52
2022/07/27 06:01:44;;;;;;;8.23;1.80;;;14.00;99.90;;;;;;5029944;28;20494;-52
2022/07/27 06:04:11;;;;;;;3.20;1.50;;;14.10;99.90;;;;;;5029105;28;20940;-51
2022/07/27 06:09:21;;;;;;;7.70;1.60;;;14.20;99.90;;;;;;5030235;28;22509;-51
2022/07/27 06:11:49;;;;;;;4.53;1.40;;;14.40;99.90;;;;;;5027772;28;20494;-53
2022/07/27 06:14:16;;;;;;;5.97;2.13;;;14.40;99.90;;;;;;5033374;28;20482;-52
2022/07/27 06:16:42;;;;;;;6.83;2.27;;;14.50;99.90;;;;;;5030864;28;20540;-51
2022/07/27 06:19:09;;;;;;;5.60;1.80;;;14.50;99.90;;;;;;5027066;28;20536;-51
2022/07/27 06:21:36;;;;;;;5.87;1.60;;;14.70;99.90;;;;;;5028151;28;20972;-51
2022/07/27 06:24:02;;;;;;;6.63;1.40;;;14.70;99.90;;;;;;5031661;28;20510;-52
2022/07/27 06:26:29;;;;;;;4.93;2.17;;;14.80;99.90;;;;;;5026007;28;20497;-51
2022/07/27 06:29:00;;;;;;;5.60;1.47;;;14.80;92.10;;;;;;5032322;28;20970;-53
2022/07/27 06:31:27;;;;;;;7.70;2.03;;;15.00;86.40;;;;;;5028369;28;20558;-51
2022/07/27 06:33:54;;;;;;;3.10;1.93;;;15.00;25.90;;;;;;5028462;28;20527;-52
2022/07/27 06:36:21;;;;;;;6.73;1.43;;;15.10;24.20;;;;;;5030437;28;20478;-51
2022/07/27 06:38:48;;;;;;;10.93;1.57;;;15.20;24.70;;;;;;5023996;28;20517;-52
2022/07/27 06:41:15;;;;;;;8.83;3.40;;;15.20;24.90;;;;;;5030546;28;20486;-53
2022/07/27 06:43:41;;;;;;;4.53;1.30;;;15.30;32.00;;;;;;5027744;28;20458;-53
2022/07/27 06:46:11;;;;;;;6.30;1.77;;;15.40;47.10;;;;;;5026674;28;20520;-52
2022/07/27 06:48:38;;;;;;;9.37;1.77;;;15.60;57.60;;;;;;5024677;28;20454;-52
2022/07/27 06:51:05;;;;;;;8.70;1.23;;;15.70;59.70;;;;;;5029706;28;20953;-51
2022/07/27 06:53:32;;;;;;;4.87;1.50;;;15.70;64.20;;;;;;5030919;28;20493;-51
2022/07/27 06:56:02;;;;;;;5.53;1.60;;;15.80;64.10;;;;;;5029601;28;20462;-51
2022/07/27 06:58:29;;;;;;;1.87;1.10;;;15.80;68.00;;;;;;5028689;28;21008;-52
2022/07/27 07:00:57;;;;;;;18.30;1.50;;;15.80;64.90;;;;;;5025879;28;20455;-52
2022/07/27 07:03:25;;;;;;;10.33;2.13;;;15.80;62.40;;;;;;5026913;28;20967;-51
2022/07/27 07:05:52;;;;;;;7.40;1.60;;;15.90;64.00;;;;;;5026805;28;20482;-52
2022/07/27 07:08:18;;;;;;;7.87;1.90;;;15.90;71.20;;;;;;5030282;28;20467;-52
2022/07/27 07:10:45;;;;;;;4.87;1.30;;;15.90;64.30;;;;;;5022838;28;20458;-51
2022/07/27 07:13:12;;;;;;;15.03;2.17;;;16.00;70.80;;;;;;5023384;28;20544;-52
2022/07/27 07:15:41;;;;;;;11.47;1.47;;;16.20;78.90;;;;;;5028823;28;20474;-52
2022/07/27 07:18:08;;;;;;;3.37;1.43;;;16.40;93.70;;;;;;5030137;28;20529;-52
2022/07/27 07:20:36;;;;;;;3.77;1.43;;;16.50;95.20;;;;;;5028473;28;20995;-51
2022/07/27 07:23:04;;;;;;;4.70;1.30;;;16.60;98.60;;;;;;5027838;28;20498;-51
2022/07/27 07:25:31;;;;;;;2.73;1.40;;;16.60;99.90;;;;;;5020082;28;20490;-52
2022/07/27 07:27:58;;;;;;;1.53;1.00;;;16.70;98.80;;;;;;5029466;28;20454;-52
2022/07/27 07:30:26;;;;;;;2.37;1.10;;;16.80;99.90;;;;;;5020781;28;20910;-51
2022/07/27 07:32:53;;;;;;;6.27;1.80;;;16.80;99.90;;;;;;5028568;28;20462;-52
2022/07/27 07:35:20;;;;;;;9.70;1.80;;;16.80;99.90;;;;;;5026531;28;20497;-51
2022/07/27 07:37:48;;;;;;;8.83;1.10;;;16.80;99.90;;;;;;5024472;28;20521;-52
2022/07/27 07:40:14;;;;;;;3.27;1.23;;;16.90;99.90;;;;;;5025159;28;20968;-51
2022/07/27 07:42:49;;;;;;;2.77;1.37;;;16.90;99.90;;;;;;5022865;28;21036;-55
2022/07/27 07:45:16;;;;;;;11.87;1.67;;;17.00;99.90;;;;;;5022509;28;20496;-51
2022/07/27 07:47:42;;;;;;;7.47;1.20;;;17.00;99.90;;;;;;5031254;28;20497;-52
2022/07/27 07:50:09;;;;;;;3.60;1.23;;;17.10;99.90;;;;;;5025314;28;21157;-52
2022/07/27 07:52:36;;;;;;;6.83;1.57;;;17.00;99.90;;;;;;5028405;28;20462;-52
2022/07/27 07:55:05;;;;;;;4.20;1.10;;;16.90;99.90;;;;;;5028649;28;20482;-51
2022/07/27 07:57:32;;;;;;;2.77;1.50;;;16.90;99.90;;;;;;5027426;28;20491;-51
2022/07/27 07:59:59;;;;;;;6.27;1.53;;;16.90;99.90;;;;;;5025960;28;20503;-51
2022/07/27 08:02:25;;;;;;;6.30;1.37;;;17.00;99.90;;;;;;5031185;28;20531;-52
2022/07/27 08:04:52;;;;;;;3.57;1.03;;;17.00;99.90;;;;;;5034848;28;21024;-52
2022/07/27 08:07:18;;;;;;;3.93;1.17;;;17.20;99.90;;;;;;5030108;28;20490;-52
2022/07/27 08:09:45;;;;;;;6.47;1.60;;;17.30;99.90;;;;;;5029682;28;20495;-52
2022/07/27 08:12:13;;;;;;;2.90;1.10;;;17.40;99.90;;;;;;5028053;28;20490;-52
2022/07/27 08:14:39;;;;;;;11.00;1.30;;;17.60;99.90;;;;;;5042037;28;20478;-51
2022/07/27 08:17:06;;;;;;;4.57;1.10;;;17.70;99.90;;;;;;5043807;28;20572;-51
2022/07/27 08:19:32;;;;;;;3.87;1.10;;;17.80;99.90;;;;;;5042616;28;20536;-52
2022/07/27 08:21:59;;;;;;;2.93;1.23;;;17.80;99.90;;;;;;5029490;28;20462;-51
2022/07/27 08:24:26;;;;;;;5.27;1.10;;;17.80;99.90;;;;;;5035024;28;20501;-52
2022/07/27 08:26:52;;;;;;;5.13;1.13;;;17.80;99.90;;;;;;5025550;28;20964;-51
2022/07/27 08:29:20;;;;;;;3.53;1.20;;;17.70;99.90;;;;;;5027221;28;20486;-51
2022/07/27 08:31:47;;;;;;;2.40;1.27;;;17.60;99.90;;;;;;5029066;28;20490;-52
2022/07/27 08:34:13;;;;;;;6.23;1.87;;;17.50;99.90;;;;;;5032895;28;21001;-53
2022/07/27 08:36:40;;;;;;;2.80;1.30;;;17.50;99.90;;;;;;5029521;28;20490;-52
2022/07/27 08:39:07;;;;;;;3.50;1.17;;;17.50;99.90;;;;;;5026581;28;20486;-51
2022/07/27 08:41:37;;;;;;;5.33;1.10;;;17.70;99.90;;;;;;5033415;28;20944;-52
2022/07/27 08:44:05;;;;;;;8.10;1.30;;;17.80;99.90;;;;;;5031906;28;20569;-52
2022/07/27 08:46:34;;;;;;;3.40;0.97;;;17.90;99.90;;;;;;5029808;28;20792;-52
2022/07/27 08:49:01;;;;;;;8.13;1.40;;;18.10;99.90;;;;;;5032362;28;20463;-52
2022/07/27 08:51:29;;;;;;;2.47;1.10;;;18.20;99.90;;;;;;5029664;28;20466;-52
2022/07/27 08:53:56;;;;;;;2.30;1.07;;;18.30;99.90;;;;;;5034455;28;20528;-52
2022/07/27 08:56:22;;;;;;;3.30;1.13;;;18.20;99.90;;;;;;5027584;28;20465;-52
2022/07/27 08:58:49;;;;;;;2.00;1.10;;;18.20;1.40;;;;;;5030686;28;20467;-52
2022/07/27 09:01:16;;;;;;;3.60;1.23;;;18.10;99.90;;;;;;5031116;28;20494;-52
2022/07/27 09:03:44;;;;;;;11.10;2.10;;;18.20;99.90;;;;;;5026860;28;20490;-52
2022/07/27 09:06:10;;;;;;;3.53;1.10;;;18.20;99.90;;;;;;5030762;28;20490;-53
2022/07/27 09:08:40;;;;;;;4.10;1.53;;;18.00;99.90;;;;;;5033784;28;20495;-52
2022/07/27 09:13:36;;;;;;;5.50;1.10;;;17.80;99.90;;;;;;5013024;28;20831;-52
2022/07/27 09:16:04;;;;;;;2.60;0.70;;;17.80;99.90;;;;;;5009268;28;20549;-51
2022/07/27 09:18:33;;;;;;;9.80;1.83;;;17.80;99.90;;;;;;5008641;28;20511;-51
2022/07/27 09:21:13;;;;;;;8.27;1.13;;;17.70;99.90;;;;;;5012010;28;20868;-52
2022/07/27 09:23:41;;;;;;;1.37;0.83;;;17.60;99.90;;;;;;5003961;28;20448;-51
2022/07/27 09:26:12;;;;;;;4.60;1.13;;;17.50;99.90;;;;;;5007261;28;21260;-51
2022/07/27 09:28:40;;;;;;;3.13;1.30;;;17.40;99.90;;;;;;5009698;28;20483;-51
2022/07/27 09:31:08;;;;;;;6.03;1.40;;;17.40;99.90;;;;;;5010014;28;20514;-51
2022/07/27 09:33:44;;;;;;;6.33;1.57;;;17.40;99.90;;;;;;5010613;28;20849;-52
2022/07/27 09:36:12;;;;;;;1.73;1.20;;;17.30;99.90;;;;;;5003718;28;20483;-52
2022/07/27 09:38:50;;;;;;;3.53;1.10;;;17.30;99.90;;;;;;5012678;28;20918;-51
2022/07/27 09:41:17;;;;;;;4.93;1.53;;;17.30;99.90;;;;;;5005856;28;20451;-51
2022/07/27 09:43:48;;;;;;;5.13;1.40;;;17.30;99.90;;;;;;5008365;28;20459;-53
2022/07/27 09:46:15;;;;;;;4.60;1.57;;;17.40;99.90;;;;;;5008639;28;20467;-52
2022/07/27 09:48:42;;;;;;;5.23;1.27;;;17.40;99.90;;;;;;5007411;28;20459;-52
2022/07/27 09:51:10;;;;;;;4.10;1.07;;;17.50;99.90;;;;;;5009199;28;20464;-52
2022/07/27 09:53:38;;;;;;;7.77;1.73;;;17.70;99.90;;;;;;4998633;28;21017;-52
2022/07/27 09:56:07;;;;;;;3.90;1.30;;;17.70;99.90;;;;;;5008360;28;20499;-51
2022/07/27 09:58:48;;;;;;;3.33;1.50;;;17.90;99.90;;;;;;5001642;28;20542;-52
2022/07/27 10:01:17;;;;;;;9.27;1.70;;;17.90;99.90;;;;;;5012752;28;20937;-51
2022/07/27 10:03:45;;;;;;;5.10;1.13;;;17.90;99.90;;;;;;5010999;28;20463;-52
2022/07/27 10:06:12;;;;;;;5.60;1.63;;;18.00;99.90;;;;;;5007895;28;20517;-52
2022/07/27 10:08:43;;;;;;;6.07;1.37;;;18.20;99.90;;;;;;5012043;28;20499;-51
2022/07/27 10:11:10;;;;;;;4.10;1.27;;;18.30;99.90;;;;;;5009223;28;20491;-52
2022/07/27 10:13:37;;;;;;;8.13;2.20;;;18.40;99.90;;;;;;5008215;28;20487;-53
2022/07/27 10:16:05;;;;;;;3.60;1.20;;;18.30;99.90;;;;;;5007466;28;20455;-52
2022/07/27 10:18:45;;;;;;;4.07;1.23;;;18.30;99.90;;;;;;5002265;28;20525;-51
2022/07/27 10:21:12;;;;;;;4.77;1.20;;;18.30;99.90;;;;;;5000968;28;20459;-51
2022/07/27 10:23:42;;;;;;;3.40;1.13;;;18.30;99.90;;;;;;5007884;28;20492;-52
2022/07/27 10:26:15;;;;;;;3.30;0.97;;;18.40;99.90;;;;;;5006329;28;20554;-51
2022/07/27 10:28:52;;;;;;;7.20;1.63;;;18.60;99.90;;;;;;5007376;28;20488;-51
2022/07/27 10:31:23;;;;;;;2.47;1.40;;;18.60;99.90;;;;;;5005757;28;20993;-52
2022/07/27 10:33:51;;;;;;;4.20;1.47;;;18.70;99.90;;;;;;5003278;28;20460;-51
2022/07/27 10:36:39;;;;;;;8.10;1.30;;;18.60;99.90;;;;;;5007203;28;21011;-52
2022/07/27 10:39:08;;;;;;;4.13;1.20;;;18.60;1.40;;;;;;5002629;28;20539;-51
2022/07/27 10:41:38;;;;;;;10.30;1.47;;;18.50;1.40;;;;;;4999025;28;22029;-52
2022/07/27 10:44:28;;;;;;;4.70;1.60;;;18.50;99.90;;;;;;4996735;28;20849;-51
2022/07/27 10:46:57;;;;;;;6.23;2.20;;;18.50;99.90;;;;;;5005885;28;20463;-52
2022/07/27 10:49:26;;;;;;;8.37;1.20;;;18.50;99.90;;;;;;5007421;28;20500;-52
2022/07/27 10:51:53;;;;;;;5.00;1.50;;;18.80;99.90;;;;;;5001124;28;20488;-52
2022/07/27 10:54:25;;;;;;;2.20;1.33;;;19.00;99.90;;;;;;5003995;28;20471;-52
2022/07/27 10:56:52;;;;;;;6.57;1.40;;;19.10;99.90;;;;;;5007137;28;20460;-52
2022/07/27 10:59:50;;;;;;;12.13;1.50;;;19.10;99.90;;;;;;5011213;28;20543;-51
2022/07/27 11:02:18;;;;;;;4.83;1.00;;;19.10;99.90;;;;;;4921694;29;20494;-52
2022/07/27 11:04:46;;;;;;;3.00;1.43;;;19.00;99.90;;;;;;4985886;28;20971;-52
2022/07/27 11:07:16;;;;;;;6.53;1.60;;;18.90;99.90;;;;;;5009299;28;20470;-52
2022/07/27 11:09:45;;;;;;;3.83;2.03;;;18.80;99.90;;;;;;5006171;28;20865;-52
2022/07/27 11:12:13;;;;;;;5.53;1.43;;;18.90;99.90;;;;;;5004171;28;20519;-52
2022/07/27 11:14:47;;;;;;;2.60;1.50;;;19.10;99.90;;;;;;5006867;28;20464;-51
2022/07/27 11:17:14;;;;;;;3.47;1.30;;;19.20;99.90;;;;;;5010518;28;21080;-53
2022/07/27 11:19:41;;;;;;;7.60;1.40;;;19.10;99.90;;;;;;5009523;28;20491;-51
2022/07/27 11:22:08;;;;;;;2.70;1.20;;;19.10;99.90;;;;;;5005742;28;20511;-51
2022/07/27 11:24:35;;;;;;;4.57;1.43;;;19.00;99.90;;;;;;5010504;28;20492;-51
2022/07/27 11:27:04;;;;;;;4.10;1.10;;;19.00;99.90;;;;;;5005764;28;20455;-51
2022/07/27 11:29:35;;;;;;;5.53;1.77;;;19.10;99.90;;;;;;5003915;28;20492;-51
2022/07/27 11:32:03;;;;;;;1.47;1.03;;;19.10;99.90;;;;;;5000459;28;20515;-51
2022/07/27 11:34:31;;;;;;;3.27;1.57;;;19.10;99.90;;;;;;5011210;28;20522;-53
2022/07/27 11:37:00;;;;;;;3.43;1.13;;;19.10;99.90;;;;;;5008879;28;20499;-52
2022/07/27 11:39:29;;;;;;;10.70;2.03;;;19.00;99.90;;;;;;5006735;28;20484;-52
2022/07/27 11:41:56;;;;;;;5.03;1.50;;;19.00;99.90;;;;;;5006715;28;20503;-53
2022/07/27 11:44:25;;;;;;;4.70;1.70;;;18.90;99.90;;;;;;4997475;28;20467;-53
2022/07/27 11:46:53;;;;;;;2.20;1.23;;;18.90;99.90;;;;;;5008039;28;21055;-52
2022/07/27 11:49:25;;;;;;;1.80;0.90;;;18.90;99.90;;;;;;4993476;28;20861;-52
2022/07/27 11:51:52;;;;;;;1.50;0.90;;;18.90;99.90;;;;;;5001760;28;20483;-52
2022/07/27 11:54:22;;;;;;;5.13;1.47;;;19.00;99.90;;;;;;5008310;28;21012;-52
2022/07/27 11:56:52;;;;;;;2.23;1.33;;;19.00;99.90;;;;;;5000714;28;20453;-52
2022/07/27 11:59:20;;;;;;;4.87;1.17;;;18.90;99.90;;;;;;4996994;28;21075;-53
2022/07/27 12:01:52;;;;;;;4.60;1.43;;;19.00;99.90;;;;;;5006684;28;20534;-53
2022/07/27 12:04:21;;;;;;;6.77;1.27;;;19.00;99.90;;;;;;4999843;28;20466;-53
2022/07/27 12:06:56;;;;;;;5.23;1.17;;;19.10;99.90;;;;;;5004748;28;20510;-51
2022/07/27 12:09:23;;;;;;;3.87;1.40;;;19.30;99.90;;;;;;5007107;28;21318;-50
2022/07/27 12:11:56;;;;;;;3.03;1.43;;;19.40;99.90;;;;;;5002256;28;20483;-51
2022/07/27 12:14:33;;;;;;;2.80;1.07;;;19.60;99.90;;;;;;4995303;28;20518;-52
2022/07/27 12:17:28;;;;;;;4.37;1.40;;;19.50;99.90;;;;;;5008153;28;20462;-52
2022/07/27 12:20:01;;;;;;;1.70;1.13;;;19.40;99.90;;;;;;4999408;28;20552;-52
2022/07/27 12:22:31;;;;;;;7.13;1.67;;;19.30;99.90;;;;;;5004885;28;20865;-52
2022/07/27 12:25:00;;;;;;;2.47;1.27;;;19.20;99.90;;;;;;5007371;28;20554;-52
2022/07/27 12:27:28;;;;;;;5.70;1.37;;;19.20;99.90;;;;;;5005810;28;20468;-51
2022/07/27 12:30:02;;;;;;;5.67;1.40;;;19.20;99.90;;;;;;5006103;28;21055;-52
2022/07/27 12:32:33;;;;;;;3.13;1.60;;;19.20;99.90;;;;;;5010276;28;20870;-51
2022/07/27 12:34:59;;;;;;;1.97;1.03;;;19.30;99.90;;;;;;5000985;28;20496;-51
2022/07/27 12:37:30;;;;;;;3.30;1.47;;;19.30;99.90;;;;;;5004075;28;20495;-51
2022/07/27 12:39:58;;;;;;;6.30;1.77;;;19.40;99.90;;;;;;5007085;28;20487;-53
2022/07/27 12:42:33;;;;;;;9.07;1.27;;;19.60;99.90;;;;;;5005641;28;20483;-52
2022/07/27 12:45:12;;;;;;;3.37;1.47;;;19.60;99.90;;;;;;5011261;28;20470;-53
2022/07/27 12:47:42;;;;;;;14.43;1.83;;;19.70;99.90;;;;;;5011318;28;20508;-52
2022/07/27 12:50:11;;;;;;;8.53;1.50;;;19.60;99.90;;;;;;5011117;28;20452;-52
2022/07/27 12:52:42;;;;;;;1.73;0.87;;;19.60;99.90;;;;;;5006114;28;20546;-51
2022/07/27 12:55:10;;;;;;;3.60;1.37;;;19.60;99.90;;;;;;5005469;28;20538;-52
2022/07/27 12:57:36;;;;;;;2.43;1.20;;;19.60;99.90;;;;;;5009859;28;20497;-52
2022/07/27 13:00:05;;;;;;;3.13;1.00;;;19.50;99.90;;;;;;5006628;28;20479;-52